createdAt,value
2019-03-30T00:01:19.266Z,15.30
2019-03-30T00:06:16.564Z,15.40
2019-03-30T00:10:43.582Z,15.20
2019-03-30T00:14:49.311Z,15.10
2019-03-30T00:18:55.034Z,15.10
2019-03-30T00:23:00.811Z,15.00
2019-03-30T00:27:06.595Z,14.90
2019-03-30T00:31:12.296Z,14.90
2019-03-30T00:35:18.064Z,14.70
2019-03-30T00:39:23.758Z,14.60
2019-03-30T00:43:29.438Z,14.50
2019-03-30T00:47:35.227Z,14.70
2019-03-30T00:51:40.914Z,14.90
2019-03-30T00:55:46.628Z,14.90
2019-03-30T00:59:52.317Z,14.80
2019-03-30T01:03:58.011Z,14.60
2019-03-30T01:08:03.742Z,14.40
2019-03-30T01:12:09.436Z,14.40
2019-03-30T01:16:15.204Z,14.40
2019-03-30T01:20:20.892Z,14.60
2019-03-30T01:24:28.322Z,14.50
2019-03-30T01:28:34.029Z,14.50
2019-03-30T01:32:39.730Z,14.50
2019-03-30T01:36:45.628Z,14.50
2019-03-30T01:40:51.309Z,14.40
2019-03-30T01:44:57.975Z,14.40
2019-03-30T01:49:03.712Z,14.40
2019-03-30T01:53:09.404Z,14.30
2019-03-30T01:57:15.111Z,14.30
2019-03-30T02:01:20.918Z,14.30
2019-03-30T02:05:26.649Z,14.10
2019-03-30T02:09:32.501Z,14.10
2019-03-30T02:13:38.194Z,14.20
2019-03-30T02:17:43.886Z,14.10
2019-03-30T02:21:49.588Z,14.10
2019-03-30T02:25:55.299Z,14.10
2019-03-30T02:30:01.014Z,14.00
2019-03-30T02:34:07.859Z,14.00
2019-03-30T02:38:13.539Z,14.00
2019-03-30T02:42:19.519Z,13.80
2019-03-30T02:46:25.224Z,13.80
2019-03-30T02:50:47.686Z,13.70
2019-03-30T02:54:38.346Z,13.80
2019-03-30T02:58:44.039Z,13.80
2019-03-30T03:02:49.758Z,13.60
2019-03-30T03:06:55.505Z,13.40
2019-03-30T03:11:01.288Z,13.30
2019-03-30T03:15:11.046Z,13.30
2019-03-30T03:19:16.733Z,13.30
2019-03-30T03:23:22.424Z,13.40
2019-03-30T03:27:28.129Z,13.30
2019-03-30T03:31:33.827Z,13.30
2019-03-30T03:35:39.561Z,13.20
2019-03-30T03:39:45.237Z,13.20
2019-03-30T03:43:51.041Z,13.30
2019-03-30T03:47:56.809Z,13.20
2019-03-30T03:52:03.338Z,13.10
2019-03-30T03:56:11.731Z,12.80
2019-03-30T04:00:17.511Z,12.90
2019-03-30T04:04:27.460Z,12.90
2019-03-30T04:08:33.704Z,12.80
2019-03-30T04:12:41.208Z,12.70
2019-03-30T04:16:47.075Z,12.90
2019-03-30T04:20:53.804Z,12.90
2019-03-30T04:24:59.506Z,12.80
2019-03-30T04:29:05.215Z,12.70
2019-03-30T04:33:11.071Z,12.70
2019-03-30T04:37:16.797Z,12.80
2019-03-30T04:41:22.640Z,12.80
2019-03-30T04:45:28.418Z,12.90
2019-03-30T04:49:34.129Z,12.70
2019-03-30T04:53:39.831Z,12.50
2019-03-30T04:57:49.738Z,12.40
2019-03-30T05:01:52.927Z,12.30
2019-03-30T05:05:58.681Z,12.30
2019-03-30T05:10:08.633Z,12.40
2019-03-30T05:14:14.322Z,12.60
2019-03-30T05:18:20.022Z,12.50
2019-03-30T05:22:25.702Z,12.70
2019-03-30T05:26:31.474Z,12.80
2019-03-30T05:30:37.375Z,12.80
2019-03-30T05:34:43.152Z,12.70
2019-03-30T05:38:48.853Z,12.90
2019-03-30T05:42:54.532Z,13.00
2019-03-30T05:47:00.233Z,13.00
2019-03-30T05:51:06.054Z,13.00
2019-03-30T05:55:11.791Z,13.10
2019-03-30T05:59:17.489Z,13.00
2019-03-30T06:03:23.187Z,13.10
2019-03-30T06:07:28.921Z,13.10
2019-03-30T06:11:34.703Z,13.20
2019-03-30T06:15:40.411Z,13.30
2019-03-30T06:19:46.162Z,13.20
2019-03-30T06:23:51.897Z,13.20
2019-03-30T06:27:57.664Z,13.40
2019-03-30T06:32:03.360Z,13.80
2019-03-30T06:36:09.102Z,14.20
2019-03-30T06:40:16.405Z,14.70
2019-03-30T06:44:22.103Z,15.10
2019-03-30T06:48:27.830Z,15.60
2019-03-30T06:52:33.534Z,16.10
2019-03-30T06:56:39.273Z,16.50
2019-03-30T07:00:46.390Z,16.70
2019-03-30T07:04:52.611Z,16.90
2019-03-30T07:09:01.828Z,16.90
2019-03-30T07:13:07.838Z,16.90
2019-03-30T07:17:14.282Z,17.10
2019-03-30T07:21:19.964Z,17.40
2019-03-30T07:25:26.311Z,17.80
2019-03-30T07:29:32.015Z,18.20
2019-03-30T07:33:37.815Z,18.30
2019-03-30T07:37:43.524Z,18.60
2019-03-30T07:41:49.225Z,18.60
2019-03-30T07:45:54.925Z,18.90
2019-03-30T07:50:00.633Z,19.30
2019-03-30T07:54:06.405Z,19.70
2019-03-30T07:58:12.114Z,20.00
2019-03-30T08:02:17.816Z,20.30
2019-03-30T08:06:23.517Z,20.80
2019-03-30T08:10:29.352Z,21.20
2019-03-30T08:14:35.088Z,21.50
2019-03-30T08:18:40.740Z,21.80
2019-03-30T08:22:47.422Z,22.20
2019-03-30T08:26:53.127Z,22.70
2019-03-30T08:30:58.869Z,23.00
2019-03-30T08:35:06.327Z,23.40
2019-03-30T08:39:12.138Z,23.70
2019-03-30T08:43:17.887Z,24.20
2019-03-30T08:47:23.612Z,24.80
2019-03-30T08:51:29.310Z,25.10
2019-03-30T08:55:35.031Z,25.40
2019-03-30T08:59:40.717Z,26.00
2019-03-30T09:03:47.517Z,26.50
2019-03-30T09:07:53.214Z,27.10
2019-03-30T09:11:58.923Z,27.70
2019-03-30T09:16:04.645Z,28.20
2019-03-30T09:20:10.643Z,28.70
2019-03-30T09:24:16.342Z,29.20
2019-03-30T09:28:22.160Z,29.90
2019-03-30T09:32:27.932Z,30.50
2019-03-30T09:36:33.759Z,30.80
2019-03-30T09:40:39.525Z,31.50
2019-03-30T09:44:45.222Z,32.30
2019-03-30T09:48:50.919Z,32.70
2019-03-30T09:52:56.658Z,33.20
2019-03-30T09:57:02.359Z,33.60
2019-03-30T10:01:08.129Z,33.90
2019-03-30T10:05:14.142Z,34.40
2019-03-30T10:09:19.855Z,34.80
2019-03-30T10:13:25.635Z,35.30
2019-03-30T10:17:31.387Z,35.60
2019-03-30T10:21:37.088Z,35.90
2019-03-30T10:25:42.795Z,36.40
2019-03-30T10:29:48.529Z,37.10
2019-03-30T10:33:54.240Z,37.60
2019-03-30T10:37:59.926Z,38.00
2019-03-30T10:42:05.763Z,38.20
2019-03-30T10:46:11.516Z,38.60
2019-03-30T10:50:17.385Z,39.00
2019-03-30T10:54:23.121Z,39.40
2019-03-30T10:58:28.839Z,39.60
2019-03-30T11:02:34.600Z,39.70
2019-03-30T11:06:40.338Z,40.20
2019-03-30T11:10:46.087Z,40.30
2019-03-30T11:14:51.861Z,40.20
2019-03-30T11:18:57.635Z,40.30
2019-03-30T11:23:03.372Z,40.70
2019-03-30T11:27:09.068Z,40.80
2019-03-30T11:31:14.790Z,41.00
2019-03-30T11:35:20.508Z,41.40
2019-03-30T11:39:26.252Z,41.80
2019-03-30T11:43:31.971Z,41.80
2019-03-30T11:47:37.703Z,41.90
2019-03-30T11:51:43.409Z,41.70
2019-03-30T11:55:49.148Z,41.50
2019-03-30T11:59:54.833Z,40.10
2019-03-30T12:04:00.538Z,39.30
2019-03-30T12:08:06.328Z,38.80
2019-03-30T12:12:12.025Z,37.90
2019-03-30T12:16:17.818Z,36.70
2019-03-30T12:20:23.536Z,36.00
2019-03-30T12:24:29.262Z,35.60
2019-03-30T12:28:34.989Z,34.40
2019-03-30T12:33:19.053Z,32.70
2019-03-30T12:37:24.800Z,33.30
2019-03-30T12:42:18.631Z,33.20
2019-03-30T12:46:24.316Z,34.00
2019-03-30T12:55:20.053Z,31.80
2019-03-30T12:59:25.769Z,32.40
2019-03-30T13:03:31.535Z,32.80
2019-03-30T13:07:37.338Z,34.40
2019-03-30T13:11:43.020Z,34.30
2019-03-30T13:15:48.744Z,33.70
2019-03-30T13:19:54.433Z,33.50
2019-03-30T13:24:15.122Z,33.60
2019-03-30T13:28:20.885Z,34.70
2019-03-30T13:32:26.633Z,36.30
2019-03-30T13:36:39.574Z,36.10
2019-03-30T13:40:45.269Z,36.70
2019-03-30T13:44:50.950Z,36.90
2019-03-30T13:48:56.658Z,37.70
2019-03-30T13:53:02.406Z,37.70
2019-03-30T13:57:08.115Z,37.50
2019-03-30T14:01:13.812Z,37.40
2019-03-30T14:05:19.611Z,37.30
2019-03-30T14:09:25.274Z,37.00
2019-03-30T14:13:31.094Z,36.90
2019-03-30T14:17:36.819Z,36.70
2019-03-30T14:21:42.593Z,36.20
2019-03-30T14:25:48.295Z,35.20
2019-03-30T14:29:54.546Z,34.90
2019-03-30T14:34:00.321Z,34.60
2019-03-30T14:38:07.863Z,34.20
2019-03-30T14:42:16.585Z,34.00
2019-03-30T14:46:22.423Z,33.70
2019-03-30T14:50:28.193Z,33.30
2019-03-30T14:54:33.983Z,32.80
2019-03-30T14:58:39.722Z,32.50
2019-03-30T15:02:45.591Z,32.30
2019-03-30T15:06:51.278Z,32.00
2019-03-30T15:10:56.975Z,31.60
2019-03-30T15:15:02.725Z,31.20
2019-03-30T15:19:08.490Z,30.30
2019-03-30T15:23:20.200Z,29.40
2019-03-30T15:27:25.891Z,29.20
2019-03-30T15:31:31.578Z,28.60
2019-03-30T15:35:37.598Z,27.80
2019-03-30T15:39:43.760Z,27.20
2019-03-30T15:43:51.966Z,27.00
2019-03-30T15:47:57.038Z,26.80
2019-03-30T15:52:13.709Z,26.60
2019-03-30T15:56:10.474Z,26.70
2019-03-30T16:00:18.216Z,26.70
2019-03-30T16:04:25.600Z,26.70
2019-03-30T16:08:31.345Z,26.50
2019-03-30T16:12:37.048Z,26.50
2019-03-30T16:16:42.737Z,26.30
2019-03-30T16:20:48.451Z,26.00
2019-03-30T16:24:54.231Z,25.80
2019-03-30T16:29:00.001Z,25.50
2019-03-30T16:33:05.780Z,25.30
2019-03-30T16:55:16.965Z,24.30
2019-03-30T17:00:17.232Z,23.90
2019-03-30T17:04:23.013Z,23.70
2019-03-30T17:08:28.729Z,23.40
2019-03-30T17:13:16.275Z,23.30
2019-03-30T17:17:21.991Z,23.20
2019-03-30T17:21:27.682Z,23.00
2019-03-30T17:25:33.480Z,22.80
2019-03-30T17:29:39.194Z,22.70
2019-03-30T17:33:44.895Z,22.60
2019-03-30T17:37:50.618Z,22.40
2019-03-30T17:42:17.349Z,22.30
2019-03-30T17:46:23.034Z,22.00
2019-03-30T17:50:28.794Z,21.90
2019-03-30T17:54:33.476Z,21.80
2019-03-30T17:58:38.998Z,21.70
2019-03-30T18:03:17.750Z,21.60
2019-03-30T18:07:23.429Z,21.40
2019-03-30T18:11:29.248Z,21.20
2019-03-30T18:15:34.959Z,21.20
2019-03-30T18:19:41.636Z,21.10
2019-03-30T18:23:47.677Z,20.90
2019-03-30T18:27:53.434Z,20.70
2019-03-30T18:37:04.592Z,20.60
2019-03-30T18:41:10.309Z,20.50
2019-03-30T18:45:25.945Z,20.40
2019-03-30T18:49:31.641Z,20.20
2019-03-30T18:53:38.837Z,20.20
2019-03-30T18:57:44.583Z,19.90
2019-03-30T19:01:53.389Z,19.90
2019-03-30T19:05:59.103Z,19.80
2019-03-30T19:10:06.128Z,19.80
2019-03-30T19:14:11.990Z,19.80
2019-03-30T19:18:17.748Z,19.80
2019-03-30T19:22:23.524Z,19.70
2019-03-30T19:26:29.227Z,19.70
2019-03-30T19:30:34.957Z,19.60
2019-03-30T19:34:40.621Z,19.50
2019-03-30T19:38:46.347Z,19.30
2019-03-30T19:42:52.065Z,19.20
2019-03-30T19:46:57.763Z,19.30
2019-03-30T19:51:03.521Z,19.30
2019-03-30T19:55:09.406Z,19.20
2019-03-30T19:59:15.120Z,19.20
2019-03-30T20:03:20.835Z,19.00
2019-03-30T20:07:26.568Z,18.80
2019-03-30T20:11:32.297Z,18.80
2019-03-30T20:15:38.007Z,18.70
2019-03-30T20:19:43.723Z,18.60
2019-03-30T20:23:49.444Z,18.70
2019-03-30T20:27:55.144Z,18.70
2019-03-30T20:32:00.831Z,18.60
2019-03-30T20:36:06.543Z,18.60
2019-03-30T20:40:12.719Z,18.60
2019-03-30T20:44:18.502Z,18.40
2019-03-30T20:48:24.334Z,18.30
2019-03-30T20:52:30.029Z,18.90
2019-03-30T20:56:35.730Z,18.60
2019-03-30T21:00:41.474Z,18.40
2019-03-30T21:04:47.236Z,18.30
2019-03-30T21:08:52.945Z,18.20
2019-03-30T21:13:07.456Z,18.10
2019-03-30T21:17:19.271Z,18.00
2019-03-30T21:21:25.965Z,17.80
2019-03-30T21:25:31.670Z,17.80
2019-03-30T21:29:53.949Z,17.80
2019-03-30T21:33:48.092Z,17.70
2019-03-30T21:37:53.806Z,17.70
2019-03-30T21:41:59.590Z,17.60
2019-03-30T21:46:05.391Z,17.40
2019-03-30T21:50:11.302Z,17.30
2019-03-30T21:54:17.072Z,17.40
2019-03-30T21:58:22.794Z,17.40
2019-03-30T22:02:28.496Z,17.40
2019-03-30T22:06:34.619Z,17.50
2019-03-30T22:10:40.300Z,17.40
2019-03-30T22:14:46.043Z,17.30
2019-03-30T22:18:51.745Z,17.30
2019-03-30T22:22:57.467Z,17.20
2019-03-30T22:27:03.168Z,17.10
2019-03-30T22:31:08.867Z,17.10
2019-03-30T22:35:14.711Z,17.10
2019-03-30T22:39:20.480Z,17.20
2019-03-30T22:43:26.214Z,17.10
2019-03-30T22:47:31.917Z,17.00
2019-03-30T22:51:38.867Z,16.80
2019-03-30T22:55:44.679Z,16.80
2019-03-30T22:59:50.383Z,16.80
2019-03-30T23:03:56.211Z,16.70
2019-03-30T23:08:01.955Z,16.60
2019-03-30T23:12:07.659Z,16.50
2019-03-30T23:16:13.421Z,16.50
2019-03-30T23:20:20.101Z,16.50
2019-03-30T23:24:25.791Z,16.40
2019-03-30T23:28:31.526Z,16.30
2019-03-30T23:32:37.292Z,16.30
2019-03-30T23:36:44.052Z,16.30
2019-03-30T23:40:49.762Z,16.40
2019-03-30T23:44:55.536Z,16.40
2019-03-30T23:49:01.255Z,16.30
2019-03-30T23:53:07.658Z,16.30
2019-03-30T23:57:14.420Z,16.30
